Time;durP1;ratioP1;P1;durP2;ratioP2;P2;SDS_P1;SDS_P2;PMS_P1;PMS_P2;Temp;Humidity;BMP_temperature;BMP_pressure;BME280_temperature;BME280_humidity;BME280_pressure;Samples;Min_cycle;Max_cycle;Signal;HPM_P1;HPM_P2
2022/11/16 00:01:20;;;;;;;14.75;13.25;;;;;;;14.18;100.00;97639.72;5094034;28;20020;-47
2022/11/16 00:03:47;;;;;;;5.20;3.45;;;;;;;14.04;100.00;97643.81;5092644;28;20028;-46
2022/11/16 00:06:13;;;;;;;3.35;2.58;;;;;;;13.86;100.00;97661.53;5092557;28;20446;-46
2022/11/16 00:08:45;;;;;;;9.02;4.40;;;;;;;13.61;100.00;97664.69;5092531;28;20119;-47
2022/11/16 00:11:13;;;;;;;5.60;4.20;;;;;;;13.44;100.00;97669.22;5092520;28;20020;-47
2022/11/16 00:13:41;;;;;;;4.95;2.60;;;;;;;13.42;100.00;97658.13;5092359;28;20024;-47
2022/11/16 00:16:13;;;;;;;8.13;5.72;;;;;;;13.18;100.00;97650.41;5093650;28;20107;-46
2022/11/16 00:18:39;;;;;;;5.85;2.58;;;;;;;12.94;100.00;97642.69;5094009;28;20043;-46
2022/11/16 00:21:05;;;;;;;9.85;2.78;;;;;;;12.71;100.00;97659.44;5093572;28;20486;-46
2022/11/16 00:23:31;;;;;;;9.13;5.30;;;;;;;12.58;100.00;97700.03;5093293;28;20189;-47
2022/11/16 00:26:07;;;;;;;7.30;5.97;;;;;;;12.65;100.00;97731.47;5092283;28;20114;-46
2022/11/16 00:28:33;;;;;;;3.88;3.42;;;;;;;12.76;100.00;97730.63;5093519;28;20103;-46
2022/11/16 00:31:01;;;;;;;5.55;4.53;;;;;;;12.84;100.00;97739.97;5093420;28;20145;-46
2022/11/16 00:33:27;;;;;;;5.53;3.65;;;;;;;12.88;100.00;97746.34;5091973;28;20028;-46
2022/11/16 00:35:53;;;;;;;13.70;12.30;;;;;;;12.85;100.00;97748.66;5092006;28;20092;-47
2022/11/16 00:38:19;;;;;;;4.63;3.88;;;;;;;12.79;100.00;97753.03;5091964;28;20043;-47
2022/11/16 00:40:44;;;;;;;6.47;4.53;;;;;;;12.72;100.00;97753.19;5091996;28;20370;-47
2022/11/16 00:43:10;;;;;;;13.27;4.22;;;;;;;12.88;100.00;97750.84;5091158;28;20032;-47
2022/11/16 00:45:38;;;;;;;5.63;2.17;;;;;;;13.01;100.00;97747.06;5091804;28;20101;-47
2022/11/16 00:48:04;;;;;;;6.13;2.88;;;;;;;12.99;100.00;97744.69;5092946;28;20024;-47
2022/11/16 00:50:31;;;;;;;5.57;2.45;;;;;;;12.94;100.00;97745.41;5093021;28;20020;-47
2022/11/16 00:52:56;;;;;;;2.60;1.80;;;;;;;12.96;100.00;97732.00;5092940;28;20028;-47
2022/11/16 00:55:22;;;;;;;8.73;1.65;;;;;;;12.95;100.00;97736.44;5092861;28;20024;-47
2022/11/16 00:57:50;;;;;;;6.70;2.33;;;;;;;12.85;100.00;97744.19;5092935;28;20028;-47
2022/11/16 01:00:17;;;;;;;5.82;4.68;;;;;;;12.86;100.00;97752.88;5091493;28;20016;-47
2022/11/16 01:02:42;;;;;;;11.23;3.97;;;;;;;12.89;100.00;97747.16;5091495;28;20119;-47
2022/11/16 01:05:09;;;;;;;7.47;3.25;;;;;;;12.93;100.00;97748.25;5092724;28;20060;-47
2022/11/16 01:07:36;;;;;;;8.27;5.80;;;;;;;13.07;100.00;97743.50;5074546;28;20031;-47
2022/11/16 01:10:05;;;;;;;7.45;4.95;;;;;;;13.27;100.00;97741.16;5091342;28;20028;-47
2022/11/16 01:12:30;;;;;;;3.40;1.40;;;;;;;13.28;100.00;97745.41;5092842;28;20027;-47
2022/11/16 01:14:56;;;;;;;5.18;1.90;;;;;;;13.04;100.00;97746.59;5092574;28;20051;-47
2022/11/16 01:17:22;;;;;;;4.70;1.40;;;;;;;12.89;100.00;97739.25;5092776;28;20393;-47
2022/11/16 01:19:47;;;;;;;12.68;8.20;;;;;;;12.84;100.00;97737.34;5091204;28;20028;-47
2022/11/16 01:22:13;;;;;;;3.72;1.15;;;;;;;12.98;100.00;97741.25;5091102;28;20119;-47
2022/11/16 01:24:38;;;;;;;23.73;21.48;;;;;;;12.99;100.00;97753.38;5090953;28;20177;-47
2022/11/16 01:27:04;;;;;;;12.52;8.40;;;;;;;13.10;100.00;97762.25;5091013;28;20021;-47
2022/11/16 01:29:30;;;;;;;4.88;2.08;;;;;;;13.16;100.00;97763.94;5092381;28;20024;-47
2022/11/16 01:31:56;;;;;;;10.82;3.38;;;;;;;13.09;100.00;97763.28;5092510;28;20027;-47
2022/11/16 01:34:22;;;;;;;8.13;2.78;;;;;;;13.36;100.00;97752.94;5092147;28;20032;-47
2022/11/16 01:36:48;;;;;;;8.27;5.97;;;;;;;13.41;100.00;97757.47;5090890;28;20024;-47
2022/11/16 01:39:15;;;;;;;2.83;2.03;;;;;;;13.09;100.00;97744.03;5092193;28;20490;-47
2022/11/16 01:41:42;;;;;;;5.78;1.40;;;;;;;12.88;100.00;97725.28;5090887;28;20043;-47
2022/11/16 01:44:13;;;;;;;2.30;1.30;;;;;;;12.76;100.00;97708.75;5090801;28;20032;-47
2022/11/16 01:46:40;;;;;;;5.25;1.60;;;;;;;12.69;100.00;97700.22;5092117;28;20393;-47
2022/11/16 01:49:11;;;;;;;36.83;33.45;;;;;;;12.69;100.00;97701.00;5092041;28;20016;-47
2022/11/16 01:51:41;;;;;;;10.02;9.02;;;;;;;12.67;100.00;97728.59;5090664;28;20028;-47
2022/11/16 01:54:11;;;;;;;6.88;5.00;;;;;;;12.65;100.00;97725.41;5090677;28;20028;-47
2022/11/16 01:56:39;;;;;;;4.70;4.05;;;;;;;12.63;100.00;97741.44;5092025;28;20024;-47
2022/11/16 01:59:04;;;;;;;5.53;3.42;;;;;;;12.61;100.00;97740.88;5091917;28;20027;-47
2022/11/16 02:01:30;;;;;;;3.97;3.20;;;;;;;12.76;100.00;97735.09;5091904;28;20424;-47
2022/11/16 02:03:56;;;;;;;7.10;2.50;;;;;;;12.84;100.00;97731.25;5091880;28;20403;-47
2022/11/16 02:06:49;;;;;;;6.70;1.98;;;;;;;12.82;100.00;97728.06;5090536;28;20027;-47
2022/11/16 02:09:52;;;;;;;10.48;4.07;;;;;;;12.77;100.00;97720.88;5091914;28;20024;-47
2022/11/16 02:12:50;;;;;;;5.18;3.38;;;;;;;12.61;100.00;97721.66;5090471;28;20028;-47
2022/11/16 02:15:18;;;;;;;5.60;3.28;;;;;;;12.53;100.00;97731.53;5089976;28;20113;-47
2022/11/16 02:18:03;;;;;;;7.70;3.05;;;;;;;12.56;100.00;97735.53;5090476;28;20115;-47
2022/11/16 02:21:00;;;;;;;6.22;3.00;;;;;;;12.50;100.00;97725.97;5090424;28;20460;-47
2022/11/16 02:23:59;;;;;;;4.60;2.72;;;;;;;12.40;100.00;97726.56;5057201;28;20048;-47
2022/11/16 02:26:51;;;;;;;4.68;3.20;;;;;;;12.45;100.00;97733.75;5091726;28;20020;-47
2022/11/16 02:29:32;;;;;;;5.88;2.80;;;;;;;12.47;100.00;97727.22;5090380;28;20119;-47
2022/11/16 02:32:12;;;;;;;4.90;2.55;;;;;;;12.69;100.00;97722.06;5091601;28;20028;-47
2022/11/16 02:34:56;;;;;;;7.68;2.70;;;;;;;12.92;100.00;97713.25;5091668;28;20028;-47
2022/11/16 02:37:26;;;;;;;8.75;2.20;;;;;;;12.98;100.00;97700.97;5090294;28;20024;-47
2022/11/16 02:39:56;;;;;;;4.05;2.15;;;;;;;12.78;100.00;97707.47;5090278;28;20401;-47
2022/11/16 02:42:31;;;;;;;5.20;2.28;;;;;;;12.51;100.00;97709.91;5090200;28;20542;-47
2022/11/16 02:44:59;;;;;;;3.92;2.50;;;;;;;12.40;100.00;97716.03;5090704;28;20036;-47
2022/11/16 02:47:30;;;;;;;7.18;3.00;;;;;;;12.39;100.00;97707.34;5091515;28;20105;-47
2022/11/16 02:50:04;;;;;;;35.53;32.22;;;;;;;12.54;100.00;97701.56;5091459;28;20028;-47
2022/11/16 02:52:30;;;;;;;11.52;9.50;;;;;;;12.74;100.00;97701.09;5090108;28;20039;-47
2022/11/16 02:54:56;;;;;;;7.15;6.45;;;;;;;12.91;100.00;97695.81;5090050;28;20032;-47
2022/11/16 02:57:33;;;;;;;8.95;6.05;;;;;;;12.80;100.00;97688.81;5090059;28;20016;-47
2022/11/16 03:00:01;;;;;;;7.53;4.07;;;;;;;12.71;100.00;97687.59;5090068;28;20032;-47
2022/11/16 03:02:58;;;;;;;9.48;6.80;;;;;;;12.70;100.00;97681.56;5091317;28;20034;-47
2022/11/16 03:05:30;;;;;;;6.53;3.05;;;;;;;12.57;100.00;97685.28;5091369;28;20025;-47
2022/11/16 03:08:15;;;;;;;10.55;3.40;;;;;;;12.33;100.00;97678.53;5094993;28;20035;-47
2022/11/16 03:13:34;;;;;;;4.28;2.35;;;;;;;12.02;100.00;97688.50;5094918;28;20574;-47
2022/11/16 03:16:06;;;;;;;6.88;2.60;;;;;;;11.95;100.00;97675.50;5094830;28;20099;-48
2022/11/16 03:18:32;;;;;;;7.00;2.25;;;;;;;12.08;100.00;97671.00;5095125;28;20024;-47
2022/11/16 03:21:09;;;;;;;10.75;2.20;;;;;;;12.28;100.00;97675.84;5094766;28;20093;-48
2022/11/16 03:23:34;;;;;;;9.00;4.25;;;;;;;12.39;100.00;97681.03;5093242;28;20406;-48
2022/11/16 03:26:06;;;;;;;6.95;2.40;;;;;;;12.48;100.00;97668.28;5094690;28;20028;-48
2022/11/16 03:28:46;;;;;;;7.90;2.53;;;;;;;12.49;100.00;97669.88;5094708;28;20035;-48
2022/11/16 03:31:19;;;;;;;6.97;1.80;;;;;;;12.42;100.00;97669.25;5093468;28;20553;-48
2022/11/16 03:33:52;;;;;;;4.93;1.45;;;;;;;12.46;100.00;97662.47;5094584;28;20032;-47
2022/11/16 03:36:31;;;;;;;3.38;1.52;;;;;;;12.40;100.00;97663.41;5093225;28;20043;-48
2022/11/16 03:39:07;;;;;;;3.53;1.70;;;;;;;12.28;100.00;97654.78;5094475;28;20078;-48
2022/11/16 03:41:37;;;;;;;10.85;2.35;;;;;;;12.24;100.00;97666.81;5093090;28;20060;-47
2022/11/16 03:44:03;;;;;;;11.73;2.17;;;;;;;12.42;100.00;97671.88;5094326;28;20020;-47
2022/11/16 03:46:29;;;;;;;3.55;1.77;;;;;;;12.38;100.00;97660.22;5094272;28;20031;-47
2022/11/16 03:48:57;;;;;;;5.90;2.83;;;;;;;12.21;100.00;97659.38;5094195;28;20021;-48
2022/11/16 03:51:24;;;;;;;3.88;2.15;;;;;;;12.11;100.00;97657.38;5094208;28;20075;-48
2022/11/16 03:53:49;;;;;;;7.22;1.85;;;;;;;11.95;100.00;97659.72;5092905;28;20527;-47
2022/11/16 03:56:15;;;;;;;8.18;4.70;;;;;;;11.92;100.00;97673.34;5092811;28;20020;-47
2022/11/16 03:58:40;;;;;;;5.70;2.90;;;;;;;12.21;100.00;97669.91;5094045;28;20066;-47
2022/11/16 04:01:06;;;;;;;5.38;1.73;;;;;;;12.42;100.00;97674.50;5093986;28;20020;-47
2022/11/16 04:03:32;;;;;;;8.10;2.30;;;;;;;12.36;100.00;97665.72;5092681;28;20409;-47
2022/11/16 04:25:33;;;;;;;7.35;2.20;;;;;;;12.01;100.00;97665.88;5093415;28;20059;-47
2022/11/16 04:28:15;;;;;;;15.63;2.63;;;;;;;12.17;100.00;97675.66;5093494;28;20034;-47
2022/11/16 04:39:10;;;;;;;11.68;3.28;;;;;;;12.62;100.00;97691.69;5093328;28;20030;-48
2022/11/16 04:44:21;;;;;;;4.32;1.65;;;;;;;12.82;100.00;97686.75;5093536;28;20108;-48
2022/11/16 04:49:31;;;;;;;8.85;2.95;;;;;;;12.58;100.00;97686.88;5093386;28;20103;-48
2022/11/16 04:51:57;;;;;;;6.47;1.90;;;;;;;12.62;100.00;97691.69;5091653;28;20634;-47
2022/11/16 04:54:22;;;;;;;2.63;1.48;;;;;;;12.39;100.00;97688.13;5092955;28;20558;-48
2022/11/16 04:56:48;;;;;;;18.98;5.47;;;;;;;12.23;100.00;97688.88;5092912;28;20034;-48
2022/11/16 04:59:14;;;;;;;18.30;2.50;;;;;;;12.49;100.00;97693.56;5093158;28;20058;-48
2022/11/16 05:04:23;;;;;;;8.27;2.58;;;;;;;12.44;100.00;97693.50;5092848;28;20035;-48
2022/11/16 05:06:49;;;;;;;9.68;2.40;;;;;;;12.37;100.00;97700.72;5074572;28;20020;-48
2022/11/16 05:09:18;;;;;;;7.47;2.22;;;;;;;12.43;100.00;97705.03;5091470;28;20020;-48
2022/11/16 05:11:43;;;;;;;14.90;2.35;;;;;;;12.61;100.00;97692.72;5092596;28;20558;-48
2022/11/16 05:14:09;;;;;;;8.57;2.28;;;;;;;12.41;100.00;97706.31;5092608;28;20091;-48
2022/11/16 05:16:35;;;;;;;6.68;2.40;;;;;;;12.18;100.00;97698.28;5092551;28;20028;-48
2022/11/16 05:21:45;;;;;;;7.88;2.10;;;;;;;11.89;100.00;97697.47;5092810;28;20039;-48
2022/11/16 05:26:57;;;;;;;10.75;2.95;;;;;;;11.46;100.00;97711.78;5092727;28;20066;-48
2022/11/16 05:29:23;;;;;;;13.93;2.58;;;;;;;11.44;100.00;97705.97;5090830;28;20070;-48
2022/11/16 05:31:48;;;;;;;34.80;4.07;;;;;;;11.38;100.00;97712.13;5092239;28;20047;-48
2022/11/16 05:34:14;;;;;;;31.42;4.47;;;;;;;11.26;100.00;97712.13;5091088;28;20024;-48
2022/11/16 05:36:39;;;;;;;108.95;6.20;;;;;;;11.22;100.00;97710.19;5090954;28;20035;-48
2022/11/16 05:39:05;;;;;;;31.52;3.67;;;;;;;11.14;100.00;97708.72;5090926;28;20504;-48
2022/11/16 05:41:31;;;;;;;8.15;3.65;;;;;;;11.40;100.00;97710.88;5090833;28;20024;-48
2022/11/16 05:43:57;;;;;;;38.58;4.32;;;;;;;11.78;100.00;97703.53;5092129;28;20103;-48
2022/11/16 05:46:24;;;;;;;35.08;4.35;;;;;;;11.71;100.00;97711.53;5090816;28;20512;-48
2022/11/16 05:48:49;;;;;;;70.28;5.82;;;;;;;11.56;100.00;97700.69;5092018;28;20027;-48
2022/11/16 05:51:15;;;;;;;23.42;4.72;;;;;;;11.47;100.00;97699.44;5092042;28;20016;-48
2022/11/16 05:53:43;;;;;;;32.47;5.05;;;;;;;11.47;100.00;97702.88;5091971;28;20394;-48
2022/11/16 05:56:10;;;;;;;35.42;7.22;;;;;;;11.51;100.00;97700.56;5091890;28;20426;-48
2022/11/16 05:58:36;;;;;;;62.95;5.95;;;;;;;11.57;100.00;97704.94;5090658;28;20031;-48
2022/11/16 06:01:02;;;;;;;4.90;3.50;;;;;;;11.39;100.00;97704.03;5091904;28;20028;-48
2022/11/16 06:03:31;;;;;;;3.17;2.10;;;;;;;11.20;100.00;97718.31;5091957;28;20054;-48
2022/11/16 06:05:57;;;;;;;5.90;2.75;;;;;;;10.95;100.00;97713.28;5090574;28;20024;-48
2022/11/16 06:08:23;;;;;;;7.32;4.00;;;;;;;10.77;100.00;97706.28;5090833;28;20039;-48
2022/11/16 06:10:49;;;;;;;4.38;3.20;;;;;;;10.75;100.00;97703.09;5090500;28;20032;-47
2022/11/16 06:13:14;;;;;;;13.43;9.48;;;;;;;10.65;100.00;97701.00;5092024;28;20126;-48
2022/11/16 06:15:40;;;;;;;9.95;4.10;;;;;;;10.97;100.00;97696.25;5090464;28;20557;-48
2022/11/16 06:18:06;;;;;;;7.72;2.72;;;;;;;11.19;100.00;97708.84;5092014;28;20020;-48
2022/11/16 06:20:33;;;;;;;11.55;3.00;;;;;;;11.09;100.00;97705.97;5091749;28;20027;-47
2022/11/16 06:22:58;;;;;;;6.30;2.67;;;;;;;10.97;100.00;97709.38;5090395;28;20546;-48
2022/11/16 06:25:24;;;;;;;9.70;2.92;;;;;;;10.89;100.00;97701.84;5073385;28;20044;-48
2022/11/16 06:27:50;;;;;;;6.45;2.60;;;;;;;10.88;100.00;97708.09;5091711;28;20035;-48
2022/11/16 06:30:16;;;;;;;12.77;5.28;;;;;;;10.79;100.00;97706.84;5091861;28;20028;-48
2022/11/16 06:32:41;;;;;;;6.55;3.70;;;;;;;10.99;100.00;97707.34;5090301;28;20017;-48
2022/11/16 06:35:07;;;;;;;9.48;3.00;;;;;;;11.22;100.00;97705.75;5091844;28;20507;-48
2022/11/16 06:37:33;;;;;;;14.18;2.97;;;;;;;11.41;100.00;97701.19;5091590;28;20024;-48
2022/11/16 06:39:59;;;;;;;7.38;1.90;;;;;;;11.64;100.00;97707.44;5090278;28;20020;-48
2022/11/16 06:42:24;;;;;;;12.27;3.75;;;;;;;11.52;100.00;97702.19;5094879;28;20016;-48
2022/11/16 06:44:50;;;;;;;9.80;4.50;;;;;;;11.91;100.00;97684.06;5095474;28;20111;-48
2022/11/16 06:47:15;;;;;;;11.90;5.00;;;;;;;12.12;100.00;97688.69;5095455;28;20027;-48
2022/11/16 06:49:41;;;;;;;11.80;4.72;;;;;;;12.25;100.00;97692.88;5095404;28;20057;-48
2022/11/16 06:52:07;;;;;;;9.40;4.03;;;;;;;12.12;100.00;97688.69;5095279;28;20027;-48
2022/11/16 06:54:32;;;;;;;8.80;3.85;;;;;;;11.97;100.00;97697.09;5095348;28;20086;-48
2022/11/16 06:56:58;;;;;;;16.13;4.93;;;;;;;11.77;100.00;97704.53;5093881;28;20437;-48
2022/11/16 06:59:24;;;;;;;22.75;6.57;;;;;;;11.90;100.00;97696.44;5095263;28;20020;-48
2022/11/16 07:01:50;;;;;;;8.18;3.60;;;;;;;11.92;100.00;97696.19;5095417;28;20073;-48
2022/11/16 07:04:15;;;;;;;15.50;7.07;;;;;;;11.72;100.00;97699.97;5095059;28;20022;-48
2022/11/16 07:06:41;;;;;;;7.57;4.45;;;;;;;11.74;100.00;97695.28;5093758;28;20115;-48
2022/11/16 07:09:08;;;;;;;8.45;4.10;;;;;;;11.77;100.00;97702.72;5094995;28;20020;-48
2022/11/16 07:11:34;;;;;;;6.32;2.85;;;;;;;11.74;100.00;97707.66;5094971;28;20027;-48
2022/11/16 07:14:01;;;;;;;9.02;3.40;;;;;;;11.64;100.00;97717.94;5094892;28;20089;-48
2022/11/16 07:16:27;;;;;;;15.63;4.50;;;;;;;11.57;100.00;97725.97;5093601;28;20074;-48
2022/11/16 07:18:56;;;;;;;13.40;4.13;;;;;;;11.57;100.00;97731.22;5093513;28;20035;-48
2022/11/16 07:21:22;;;;;;;9.10;3.92;;;;;;;11.51;99.90;97732.09;5094854;28;20069;-48
2022/11/16 07:23:48;;;;;;;16.17;4.40;;;;;;;11.49;100.00;97731.53;5094501;28;20425;-48
2022/11/16 07:26:14;;;;;;;9.57;4.00;;;;;;;11.65;100.00;97736.13;5093414;28;20062;-48
2022/11/16 07:28:40;;;;;;;9.23;3.88;;;;;;;12.04;100.00;97738.25;5093328;28;20028;-48
2022/11/16 07:31:08;;;;;;;12.52;3.53;;;;;;;12.56;100.00;97735.53;5094648;28;20115;-48
2022/11/16 07:33:34;;;;;;;8.02;3.17;;;;;;;13.31;100.00;97729.13;5094507;28;20075;-48
2022/11/16 07:36:09;;;;;;;7.88;3.90;;;;;;;14.26;100.00;97736.91;5094519;28;20032;-48
2022/11/16 07:38:35;;;;;;;6.28;2.70;;;;;;;15.28;99.51;97731.00;5094529;28;20016;-48
2022/11/16 07:41:07;;;;;;;8.93;3.22;;;;;;;15.86;95.22;97736.38;5094414;28;20039;-46
2022/11/16 07:43:34;;;;;;;10.07;3.08;;;;;;;16.45;92.72;97736.03;5093066;28;20028;-45
2022/11/16 07:46:14;;;;;;;13.43;3.97;;;;;;;17.12;90.34;97730.81;5093054;28;20035;-46
2022/11/16 07:48:43;;;;;;;14.77;4.60;;;;;;;17.38;85.40;97726.28;5094343;28;20103;-45
2022/11/16 07:51:14;;;;;;;7.75;3.17;;;;;;;17.05;88.37;97736.41;5093334;28;20040;-45
2022/11/16 07:53:41;;;;;;;18.15;3.63;;;;;;;16.67;91.13;97745.63;5094063;28;20035;-45
2022/11/16 07:56:07;;;;;;;13.98;3.45;;;;;;;16.23;92.52;97743.41;5094106;28;20401;-45
2022/11/16 07:58:34;;;;;;;19.85;3.33;;;;;;;16.03;94.47;97744.91;5094127;28;20023;-45
2022/11/16 08:01:04;;;;;;;16.02;4.03;;;;;;;16.25;95.93;97741.28;5092682;28;20024;-46
2022/11/16 08:03:31;;;;;;;22.65;4.22;;;;;;;16.87;93.27;97745.66;5093885;28;20024;-45
2022/11/16 08:05:59;;;;;;;13.18;3.38;;;;;;;17.44;91.48;97740.34;5093938;28;20023;-45
2022/11/16 08:08:25;;;;;;;16.17;3.67;;;;;;;17.89;89.89;97742.13;5093947;28;20020;-45
2022/11/16 08:10:50;;;;;;;17.17;4.55;;;;;;;17.94;90.07;97739.44;5093852;28;20367;-45
2022/11/16 08:13:16;;;;;;;12.02;3.10;;;;;;;18.33;91.59;97737.91;5093733;28;20039;-45
2022/11/16 08:15:42;;;;;;;9.30;3.72;;;;;;;18.68;90.25;97734.28;5093691;28;20444;-46
2022/11/16 08:18:07;;;;;;;6.82;3.50;;;;;;;18.77;91.05;97731.81;5093708;28;20039;-45
2022/11/16 08:20:35;;;;;;;20.30;4.32;;;;;;;19.30;93.33;97734.59;5093631;28;20371;-45
2022/11/16 08:23:01;;;;;;;16.40;4.95;;;;;;;19.56;91.37;97726.38;5093775;28;20038;-46
2022/11/16 08:25:26;;;;;;;12.00;3.60;;;;;;;19.83;91.57;97725.03;5092027;28;20044;-45
2022/11/16 08:27:52;;;;;;;16.05;6.10;;;;;;;20.36;92.58;97724.91;5092214;28;20055;-45
2022/11/16 08:30:18;;;;;;;20.90;9.48;;;;;;;20.93;93.07;97722.22;5093486;28;20036;-46
2022/11/16 08:32:44;;;;;;;16.58;8.13;;;;;;;21.40;91.55;97711.56;5093394;28;20068;-46
2022/11/16 08:35:10;;;;;;;6.00;4.10;;;;;;;21.62;87.30;97717.03;5093571;28;20024;-46
2022/11/16 08:37:36;;;;;;;54.78;13.18;;;;;;;21.74;85.33;97714.66;5093605;28;20035;-45
2022/11/16 08:40:02;;;;;;;31.25;7.40;;;;;;;22.26;85.71;97717.13;5093221;28;20024;-45
2022/11/16 08:42:28;;;;;;;37.53;9.93;;;;;;;22.41;81.00;97715.19;5093195;28;20074;-46
2022/11/16 08:44:53;;;;;;;112.82;18.73;;;;;;;21.88;81.86;97716.56;5091835;28;20032;-45
2022/11/16 08:47:19;;;;;;;14.32;4.90;;;;;;;22.01;81.91;97718.41;5091843;28;20035;-45
2022/11/16 08:49:45;;;;;;;20.58;6.28;;;;;;;22.25;81.17;97717.41;5093060;28;20482;-46
2022/11/16 08:52:11;;;;;;;12.93;8.18;;;;;;;21.99;80.44;97717.91;5092984;28;20027;-46
2022/11/16 08:54:37;;;;;;;8.80;4.55;;;;;;;21.18;81.35;97714.88;5093035;28;20024;-46
2022/11/16 08:57:02;;;;;;;10.85;5.00;;;;;;;20.22;84.07;97722.16;5091607;28;20058;-45
2022/11/16 08:59:28;;;;;;;13.82;4.28;;;;;;;19.15;84.05;97719.56;5092915;28;20026;-45
2022/11/16 09:01:54;;;;;;;16.85;5.28;;;;;;;18.25;86.31;97722.56;5091554;28;20174;-45
2022/11/16 09:04:20;;;;;;;67.45;15.77;;;;;;;17.71;88.86;97730.19;5091051;28;20111;-45
2022/11/16 09:06:46;;;;;;;17.42;5.32;;;;;;;17.37;90.22;97730.00;5092677;28;20036;-46
2022/11/16 09:09:11;;;;;;;19.40;9.30;;;;;;;17.01;90.52;97739.84;5092769;28;20389;-46
2022/11/16 09:11:37;;;;;;;9.45;4.32;;;;;;;16.62;91.31;97737.66;5092971;28;20023;-46
2022/11/16 09:14:03;;;;;;;4.00;2.75;;;;;;;16.20;91.00;97746.56;5092653;28;20020;-45
2022/11/16 09:16:29;;;;;;;19.75;3.83;;;;;;;15.76;91.42;97748.50;5092630;28;20024;-45
2022/11/16 09:18:55;;;;;;;27.55;4.05;;;;;;;15.60;93.59;97753.94;5092600;28;20028;-46
2022/11/16 09:21:26;;;;;;;24.48;5.75;;;;;;;15.50;93.39;97759.97;5092607;28;20048;-46
2022/11/16 09:23:53;;;;;;;16.75;8.88;;;;;;;15.60;93.44;97757.38;5092303;28;20047;-45
2022/11/16 09:26:21;;;;;;;7.22;2.50;;;;;;;16.15;95.17;97766.66;5092551;28;20497;-46
2022/11/16 09:28:59;;;;;;;8.82;3.08;;;;;;;17.50;94.45;97768.44;5092516;28;20031;-45
2022/11/16 09:31:26;;;;;;;14.40;3.90;;;;;;;19.23;92.12;97766.03;5092411;28;20028;-46
2022/11/16 09:33:53;;;;;;;9.27;3.95;;;;;;;20.53;84.13;97765.19;5092512;28;20027;-46
2022/11/16 09:36:20;;;;;;;8.93;5.40;;;;;;;20.44;83.93;97753.56;5092549;28;20464;-46
2022/11/16 09:38:46;;;;;;;8.45;7.55;;;;;;;20.87;85.42;97748.19;5092214;28;20024;-45
2022/11/16 09:41:15;;;;;;;9.65;4.20;;;;;;;21.42;83.04;97747.53;5090936;28;20020;-46
2022/11/16 09:43:59;;;;;;;9.77;3.45;;;;;;;22.30;81.58;97752.06;5092163;28;20114;-46
2022/11/16 09:46:37;;;;;;;11.70;6.22;;;;;;;23.40;78.45;97734.00;5092241;28;20490;-46
2022/11/16 09:49:12;;;;;;;13.13;4.07;;;;;;;23.08;76.22;97736.66;5090795;28;20032;-46
2022/11/16 09:51:40;;;;;;;10.77;4.13;;;;;;;23.70;75.33;97730.53;5090782;28;20060;-46
2022/11/16 09:54:20;;;;;;;11.57;9.50;;;;;;;24.76;74.90;97726.16;5091963;28;20024;-46
2022/11/16 09:56:48;;;;;;;8.25;4.70;;;;;;;25.65;71.47;97721.81;5090697;28;20050;-46
2022/11/16 09:59:23;;;;;;;9.68;7.63;;;;;;;26.20;67.97;97719.34;5091903;28;20032;-46
2022/11/16 10:02:11;;;;;;;8.60;4.05;;;;;;;26.55;67.96;97717.19;5091887;28;20032;-46
2022/11/16 10:04:51;;;;;;;14.43;8.05;;;;;;;26.94;67.02;97717.81;5090624;28;20042;-46
2022/11/16 10:07:24;;;;;;;13.23;7.60;;;;;;;27.18;66.12;97713.63;5090640;28;20032;-47
2022/11/16 10:09:50;;;;;;;11.68;5.00;;;;;;;27.40;65.05;97712.47;5091868;28;20032;-47
2022/11/16 10:12:28;;;;;;;13.77;4.78;;;;;;;27.47;64.35;97701.94;5090490;28;20426;-47
2022/11/16 10:15:35;;;;;;;15.13;5.90;;;;;;;27.57;63.29;97700.69;5091928;28;20036;-47
2022/11/16 10:18:22;;;;;;;12.45;4.47;;;;;;;27.78;63.15;97695.19;5016895;28;20034;-47
2022/11/16 10:21:21;;;;;;;12.27;3.38;;;;;;;27.74;62.00;97699.69;5033546;28;20037;-46
2022/11/16 10:24:18;;;;;;;10.77;5.18;;;;;;;27.68;64.64;97697.19;5016665;28;20108;-47
2022/11/16 10:26:58;;;;;;;8.05;5.30;;;;;;;28.08;62.56;97695.75;5033389;28;20621;-47
2022/11/16 10:29:50;;;;;;;16.17;8.32;;;;;;;27.98;62.80;97691.59;5016839;28;20057;-47
2022/11/16 10:32:27;;;;;;;9.02;4.10;;;;;;;27.67;62.50;97711.03;5016735;28;20026;-47
2022/11/16 10:35:08;;;;;;;11.50;4.43;;;;;;;27.56;64.64;97715.28;5033262;28;20057;-47
2022/11/16 10:37:38;;;;;;;9.02;4.88;;;;;;;27.77;65.31;97707.06;5033479;28;20108;-47
2022/11/16 10:40:23;;;;;;;6.38;3.55;;;;;;;27.29;62.58;97699.44;5033196;28;20149;-47
2022/11/16 10:43:15;;;;;;;11.05;4.65;;;;;;;26.48;65.25;97701.59;5033226;28;20589;-46
2022/11/16 10:45:56;;;;;;;2.60;1.23;;;;;;;26.01;59.10;97696.38;5033067;28;20163;-46
2022/11/16 10:48:35;;;;;;;3.78;1.60;;;;;;;25.50;58.72;97690.94;5033077;28;20025;-46
2022/11/16 10:51:04;;;;;;;5.88;1.52;;;;;;;24.85;60.03;97692.84;5033028;28;20037;-46
2022/11/16 10:53:38;;;;;;;2.92;1.10;;;;;;;24.58;60.52;97693.19;5064656;28;20115;-46
2022/11/16 10:56:20;;;;;;;4.70;1.88;;;;;;;24.60;60.32;97691.75;5094070;28;20093;-46
2022/11/16 10:59:04;;;;;;;5.68;1.42;;;;;;;24.40;58.88;97692.34;5095281;28;20030;-46
2022/11/16 11:01:33;;;;;;;4.55;1.85;;;;;;;23.97;60.24;97685.84;5095265;28;20504;-46
2022/11/16 11:04:23;;;;;;;8.88;3.50;;;;;;;23.46;56.06;97671.97;5093903;28;20031;-46
2022/11/16 11:06:52;;;;;;;4.78;2.95;;;;;;;22.87;59.11;97671.34;5095280;28;20056;-46
2022/11/16 11:09:25;;;;;;;3.70;2.05;;;;;;;22.34;61.16;97667.50;5095156;28;20028;-46
2022/11/16 11:12:37;;;;;;;3.70;1.40;;;;;;;22.00;61.48;97662.63;5093647;28;20053;-46
2022/11/16 11:15:25;;;;;;;3.58;1.33;;;;;;;22.07;65.04;97663.78;5094983;28;20474;-46
2022/11/16 11:18:09;;;;;;;6.45;2.42;;;;;;;23.29;63.11;97653.94;5095091;28;20096;-46
2022/11/16 11:20:35;;;;;;;30.67;16.90;;;;;;;23.75;59.34;97643.06;5094839;28;20115;-46
2022/11/16 11:23:16;;;;;;;41.28;10.55;;;;;;;24.09;58.15;97640.44;5094775;28;20037;-47
2022/11/16 11:25:57;;;;;;;7.80;3.50;;;;;;;24.56;54.72;97628.31;5093449;28;20039;-46
2022/11/16 11:28:28;;;;;;;6.95;2.25;;;;;;;24.46;56.80;97632.09;5094162;28;20098;-47
2022/11/16 11:31:24;;;;;;;12.52;3.00;;;;;;;24.57;56.72;97622.66;5094750;28;20099;-46
2022/11/16 11:33:53;;;;;;;6.30;1.83;;;;;;;25.21;57.93;97619.19;5088115;28;20040;-47
2022/11/16 11:36:23;;;;;;;9.98;1.42;;;;;;;25.39;53.86;97611.81;5094773;28;20442;-47
2022/11/16 11:39:06;;;;;;;12.45;2.70;;;;;;;25.49;56.57;97597.22;5093276;28;20035;-46
2022/11/16 11:41:35;;;;;;;4.78;0.95;;;;;;;25.73;51.29;97587.75;5094458;28;20028;-46
2022/11/16 11:44:04;;;;;;;3.03;0.80;;;;;;;25.77;54.28;97591.34;5094415;28;20089;-46
2022/11/16 11:46:36;;;;;;;4.43;0.93;;;;;;;26.15;52.83;97595.84;5094355;28;20020;-46
2022/11/16 11:49:34;;;;;;;4.00;0.90;;;;;;;26.23;47.91;97592.28;5094332;28;20561;-47
2022/11/16 11:52:12;;;;;;;6.63;1.13;;;;;;;26.08;49.07;97591.00;5093823;28;20063;-47
2022/11/16 11:54:43;;;;;;;4.22;0.82;;;;;;;25.95;50.37;97584.75;5094313;28;20023;-46
2022/11/16 11:57:21;;;;;;;7.25;1.45;;;;;;;25.56;47.92;97581.38;5094147;28;20060;-47
2022/11/16 11:59:49;;;;;;;13.55;1.70;;;;;;;25.51;54.34;97573.50;5094135;28;20028;-46
2022/11/16 12:02:15;;;;;;;7.25;1.45;;;;;;;25.95;56.86;97571.31;5094116;28;20456;-47
2022/11/16 12:05:14;;;;;;;7.05;1.20;;;;;;;26.49;54.18;97557.84;5092730;28;20111;-47
2022/11/16 12:08:03;;;;;;;5.40;1.50;;;;;;;26.82;51.84;97551.69;5094014;28;20059;-47
2022/11/16 12:11:00;;;;;;;6.40;1.33;;;;;;;27.25;51.62;97550.34;5093961;28;20501;-47
2022/11/16 12:14:01;;;;;;;10.93;2.55;;;;;;;27.19;50.86;97559.75;5093806;28;20028;-47
2022/11/16 12:17:02;;;;;;;7.13;1.83;;;;;;;27.14;55.35;97568.06;5069932;28;20043;-46
2022/11/16 12:19:55;;;;;;;6.78;1.20;;;;;;;27.47;50.18;97562.56;5031374;28;20587;-47
2022/11/16 12:22:47;;;;;;;8.75;1.70;;;;;;;27.77;50.53;97558.78;5031182;28;20084;-47
2022/11/16 12:25:41;;;;;;;4.80;1.30;;;;;;;27.66;47.61;97551.19;5031034;28;20057;-46
2022/11/16 12:28:43;;;;;;;6.85;1.73;;;;;;;27.00;49.36;97548.75;5031282;28;20038;-46